Excellent Pescadores — HORK — position and weather

sailwx.info

Track history (hours):
 
Tides and Currents Weather Stations Pressure Air Temp Water Temp Dewpoint Dewpoint Depression Visibility Wind Speed Wind Dir Waves Ship Positions

Excellent Pescadores

Last reported at 2014-Jul-05 00:33 UTC. Time now 2014-Jul-29 00:33 UTC.
Position N 36°48' W 012°08'.
Warning: this ship's position is 23 days out of date.

Length 148 m; draft 6.8 m.

Type: Cargo ship. MMSI: 356291000.

Date/timePositionNaut miles runAvg speedWind from/ knotsBaromVisibWave heightAir tempDewpointWater temp
2014-Jul-05 00:33N 36°48' W 012°08'2411.8
2014-Jul-04 22:33N 37°11' W 012°00'3611.8
2014-Jul-04 19:28N 37°46' W 011°48'1411.8
2014-Jul-04 18:15N 37°60' W 011°43'912.1
2014-Jul-04 17:32N 38°08' W 011°41'  
2014-Jul-01 14:23N 50°16' W 001°18'1112.8
2014-Jul-01 13:33N 50°19' W 001°02'2110.3
2014-Jul-01 11:33N 50°25' W 000°31'3110.3
2014-Jul-01 08:33N 50°32' E 000°17'1212.4
2014-Jul-01 07:33N 50°37' E 000°35'1313.0
2014-Jul-01 06:33N 50°44' E 000°52'1312.6
2014-Jul-01 05:33N 50°50' E 001°10'1211.6
2014-Jul-01 04:33N 50°58' E 001°23'1010.0
2014-Jul-01 03:33N 51°05' E 001°33'9 8.7
2014-Jul-01 02:33N 51°12' E 001°43'9 9.4
2014-Jul-01 01:33N 51°19' E 001°53'1111.0
2014-Jul-01 00:33N 51°29' E 001°60'1312.7
2014-Jun-30 23:33N 51°38' E 002°13'9811.6
2014-Jun-30 15:05N 52°55' E 003°55'1811.9
2014-Jun-30 13:32N 53°07' E 004°17'2912.1
2014-Jun-30 11:06N 53°34' E 004°38'13511.6
2014-Jun-29 23:24N 55°32' E 006°32'17911.3
2014-Jun-29 07:33N 57°47' E 010°07'1111.3
2014-Jun-29 06:33N 57°48' E 010°28'1111.2
2014-Jun-29 05:33N 57°47' E 010°49'1111.4
2014-Jun-29 04:33N 57°39' E 011°04'1111.3
2014-Jun-29 03:33N 57°31' E 011°20'1211.8
2014-Jun-29 02:33N 57°21' E 011°30'1312.1
2014-Jun-29 01:31N 57°09' E 011°39'1111.7
2014-Jun-29 00:33N 56°58' E 011°46'1211.4
2014-Jun-28 23:32N 56°47' E 011°52'1111.1
2014-Jun-28 22:33N 56°37' E 011°46'12110.9
2014-Jun-28 11:32N 54°39' E 011°01'1212.0
2014-Jun-28 10:33N 54°34' E 011°19'1212.2
2014-Jun-28 09:33N 54°29' E 011°38'1111.4
2014-Jun-28 08:33N 54°27' E 011°58'10 9.7
2014-Jun-28 07:33N 54°31' E 012°12'1211.0
2014-Jun-28 06:28N 54°41' E 012°25'1011.4
2014-Jun-28 05:33N 54°47' E 012°40'1111.4
2014-Jun-28 04:33N 54°51' E 012°58'1211.8
2014-Jun-28 03:33N 54°55' E 013°17'1211.7
2014-Jun-28 02:33N 54°59' E 013°36'1211.5
2014-Jun-28 01:33N 55°02' E 013°55'1110.7
2014-Jun-28 00:33N 55°09' E 014°11'1111.4
2014-Jun-27 23:33N 55°18' E 014°23'1211.6
2014-Jun-27 22:33N 55°27' E 014°35'1211.8
2014-Jun-27 21:33N 55°33' E 014°53'1212.0
2014-Jun-27 20:33N 55°39' E 015°12'1211.8
2014-Jun-27 19:33N 55°44' E 015°30'1211.9
2014-Jun-27 18:33N 55°50' E 015°49'1212.0
2014-Jun-27 17:31N 55°56' E 016°08'1212.8
2014-Jun-27 16:33N 56°02' E 016°27'2411.5
2014-Jun-27 14:26N 56°16' E 017°03'1011.4
2014-Jun-27 13:30N 56°23' E 017°18'1111.5
2014-Jun-27 12:33N 56°29' E 017°34'1311.6
2014-Jun-27 11:26N 56°37' E 017°52'2211.7
2014-Jun-27 09:32N 56°51' E 018°25'  
Track history (hours):
 
Tides and Currents Weather Stations Pressure Air Temp Water Temp Dewpoint Dewpoint Depression Visibility Wind Speed Wind Dir Waves Ship Positions

Excellent Pescadores

Last reported at 2014-Jul-05 00:33 UTC. Time now 2014-Jul-29 00:33 UTC.
Position N 36°48' W 012°08'.
Warning: this ship's position is 23 days out of date.

Length 148 m; draft 6.8 m.

Type: Cargo ship. MMSI: 356291000.

Date/timePositionNaut miles runAvg speedWind from/ knotsBaromVisibWave heightAir tempDewpointWater temp
2014-Jul-05 00:33N 36°48' W 012°08'2411.8
2014-Jul-04 22:33N 37°11' W 012°00'3611.8
2014-Jul-04 19:28N 37°46' W 011°48'1411.8
2014-Jul-04 18:15N 37°60' W 011°43'912.1
2014-Jul-04 17:32N 38°08' W 011°41'  
2014-Jul-01 14:23N 50°16' W 001°18'1112.8
2014-Jul-01 13:33N 50°19' W 001°02'2110.3
2014-Jul-01 11:33N 50°25' W 000°31'3110.3
2014-Jul-01 08:33N 50°32' E 000°17'1212.4
2014-Jul-01 07:33N 50°37' E 000°35'1313.0
2014-Jul-01 06:33N 50°44' E 000°52'1312.6
2014-Jul-01 05:33N 50°50' E 001°10'1211.6
2014-Jul-01 04:33N 50°58' E 001°23'1010.0
2014-Jul-01 03:33N 51°05' E 001°33'9 8.7
2014-Jul-01 02:33N 51°12' E 001°43'9 9.4
2014-Jul-01 01:33N 51°19' E 001°53'1111.0
2014-Jul-01 00:33N 51°29' E 001°60'1312.7
2014-Jun-30 23:33N 51°38' E 002°13'9811.6
2014-Jun-30 15:05N 52°55' E 003°55'1811.9
2014-Jun-30 13:32N 53°07' E 004°17'2912.1
2014-Jun-30 11:06N 53°34' E 004°38'13511.6
2014-Jun-29 23:24N 55°32' E 006°32'17911.3
2014-Jun-29 07:33N 57°47' E 010°07'1111.3
2014-Jun-29 06:33N 57°48' E 010°28'1111.2
2014-Jun-29 05:33N 57°47' E 010°49'1111.4
2014-Jun-29 04:33N 57°39' E 011°04'1111.3
2014-Jun-29 03:33N 57°31' E 011°20'1211.8
2014-Jun-29 02:33N 57°21' E 011°30'1312.1
2014-Jun-29 01:31N 57°09' E 011°39'1111.7
2014-Jun-29 00:33N 56°58' E 011°46'1211.4
2014-Jun-28 23:32N 56°47' E 011°52'1111.1
2014-Jun-28 22:33N 56°37' E 011°46'12110.9
2014-Jun-28 11:32N 54°39' E 011°01'1212.0
2014-Jun-28 10:33N 54°34' E 011°19'1212.2
2014-Jun-28 09:33N 54°29' E 011°38'1111.4
2014-Jun-28 08:33N 54°27' E 011°58'10 9.7
2014-Jun-28 07:33N 54°31' E 012°12'1211.0
2014-Jun-28 06:28N 54°41' E 012°25'1011.4
2014-Jun-28 05:33N 54°47' E 012°40'1111.4
2014-Jun-28 04:33N 54°51' E 012°58'1211.8
2014-Jun-28 03:33N 54°55' E 013°17'1211.7
2014-Jun-28 02:33N 54°59' E 013°36'1211.5
2014-Jun-28 01:33N 55°02' E 013°55'1110.7
2014-Jun-28 00:33N 55°09' E 014°11'1111.4
2014-Jun-27 23:33N 55°18' E 014°23'1211.6
2014-Jun-27 22:33N 55°27' E 014°35'1211.8
2014-Jun-27 21:33N 55°33' E 014°53'1212.0
2014-Jun-27 20:33N 55°39' E 015°12'1211.8
2014-Jun-27 19:33N 55°44' E 015°30'1211.9
2014-Jun-27 18:33N 55°50' E 015°49'1212.0
2014-Jun-27 17:31N 55°56' E 016°08'1212.8
2014-Jun-27 16:33N 56°02' E 016°27'2411.5
2014-Jun-27 14:26N 56°16' E 017°03'1011.4
2014-Jun-27 13:30N 56°23' E 017°18'1111.5
2014-Jun-27 12:33N 56°29' E 017°34'1311.6
2014-Jun-27 11:26N 56°37' E 017°52'2211.7
2014-Jun-27 09:32N 56°51' E 018°25'  

Dump ship's entire track history